Time;durP1;ratioP1;P1;durP2;ratioP2;P2;SDS_P1;SDS_P2;PMS_P1;PMS_P2;Temp;Humidity;BMP_temperature;BMP_pressure;BME280_temperature;BME280_humidity;BME280_pressure;Samples;Min_cycle;Max_cycle;Signal;HPM_P1;HPM_P2
2022/03/23 00:01:09;;;;;;;;;;;;;;;21.78;37.93;102637.50;4976540;28;4165;-59
2022/03/23 00:03:37;;;;;;;;;;;;;;;21.77;37.90;102636.03;4978927;28;5265;-59
2022/03/23 00:06:03;;;;;;;;;;;;;;;21.75;37.95;102634.50;4978058;28;4390;-59
2022/03/23 00:08:30;;;;;;;;;;;;;;;21.76;38.08;102646.78;4975775;28;3965;-59
2022/03/23 00:10:56;;;;;;;;;;;;;;;21.74;37.89;102633.00;4970645;28;4222;-59
2022/03/23 00:13:23;;;;;;;;;;;;;;;21.74;38.17;102633.00;4971999;28;4182;-60
2022/03/23 00:15:49;;;;;;;;;;;;;;;21.73;38.13;102631.47;4975053;28;5252;-59
2022/03/23 00:18:15;;;;;;;;;;;;;;;21.74;37.85;102630.09;4972827;28;4247;-59
2022/03/23 00:20:42;;;;;;;;;;;;;;;21.73;38.11;102631.47;4979262;28;5237;-59
2022/03/23 00:23:09;;;;;;;;;;;;;;;21.74;38.00;102624.34;4973692;28;4247;-60
2022/03/23 00:25:35;;;;;;;;;;;;;;;21.74;37.87;102632.25;4972998;28;4291;-59
2022/03/23 00:28:03;;;;;;;;;;;;;;;21.73;37.99;102630.72;4975101;28;4548;-59
2022/03/23 00:30:30;;;;;;;;;;;;;;;21.71;37.84;102622.66;4978442;28;4184;-59
2022/03/23 00:33:16;;;;;;;;;;;;;;;21.70;37.89;102624.06;4976084;28;4158;-59
2022/03/23 00:35:43;;;;;;;;;;;;;;;21.72;37.93;102621.31;4974429;28;4246;-59
2022/03/23 00:38:09;;;;;;;;;;;;;;;21.71;37.95;102631.31;4978079;28;4312;-59
2022/03/23 00:40:38;;;;;;;;;;;;;;;21.69;38.19;102619.66;4975816;28;4157;-59
2022/03/23 00:43:04;;;;;;;;;;;;;;;21.71;38.13;102622.66;4973265;28;4089;-59
2022/03/23 00:45:31;;;;;;;;;;;;;;;21.72;38.07;102617.69;4975959;28;5330;-59
2022/03/23 00:47:57;;;;;;;;;;;;;;;21.72;37.91;102612.66;4978480;28;4235;-59
2022/03/23 00:50:24;;;;;;;;;;;;;;;21.73;37.67;102613.41;4974732;28;4384;-59
2022/03/23 00:52:52;;;;;;;;;;;;;;;21.72;37.83;102612.66;4973994;28;5420;-59
2022/03/23 00:55:18;;;;;;;;;;;;;;;21.71;37.88;102616.16;4977724;28;4231;-59
2022/03/23 00:57:45;;;;;;;;;;;;;;;21.71;38.02;102605.38;4976892;28;4246;-59
2022/03/23 01:00:12;;;;;;;;;;;;;;;21.69;38.03;102599.50;4973392;28;4237;-60
2022/03/23 01:02:39;;;;;;;;;;;;;;;21.69;38.16;102602.38;4978413;28;4349;-59
2022/03/23 01:05:07;;;;;;;;;;;;;;;21.70;38.04;102601.00;4977814;28;5225;-59
2022/03/23 01:07:37;;;;;;;;;;;;;;;21.70;37.85;102598.09;4977577;28;4259;-59
2022/03/23 01:10:04;;;;;;;;;;;;;;;21.71;37.85;102596.72;4975720;28;5329;-59
2022/03/23 01:12:30;;;;;;;;;;;;;;;21.71;37.87;102596.72;4975403;28;4263;-59
2022/03/23 01:14:57;;;;;;;;;;;;;;;21.75;37.74;102587.59;4977318;28;4218;-60
2022/03/23 01:17:24;;;;;;;;;;;;;;;21.71;37.90;102588.06;4974952;28;6407;-59
2022/03/23 01:19:50;;;;;;;;;;;;;;;21.73;37.89;102593.22;4972969;28;4215;-59
2022/03/23 01:22:16;;;;;;;;;;;;;;;21.72;37.75;102594.63;4974366;28;4304;-59
2022/03/23 01:24:43;;;;;;;;;;;;;;;21.71;37.80;102588.06;4976561;28;4176;-59
2022/03/23 01:27:09;;;;;;;;;;;;;;;21.70;37.78;102592.34;4974957;28;4159;-59
2022/03/23 01:29:36;;;;;;;;;;;;;;;21.72;37.86;102589.59;4976194;28;4481;-59
2022/03/23 01:32:02;;;;;;;;;;;;;;;21.72;37.71;102588.84;4976889;28;4356;-59
2022/03/23 01:34:29;;;;;;;;;;;;;;;21.73;37.85;102585.31;4976947;28;4077;-59
2022/03/23 01:36:55;;;;;;;;;;;;;;;21.76;37.71;102591.97;4958350;28;4346;-59
2022/03/23 01:39:21;;;;;;;;;;;;;;;21.74;37.76;102597.63;4978624;28;4115;-59
2022/03/23 01:41:48;;;;;;;;;;;;;;;21.72;37.79;102589.59;4974256;28;5213;-60
2022/03/23 01:44:24;;;;;;;;;;;;;;;21.68;37.88;102592.19;4973613;28;5419;-59
2022/03/23 01:47:02;;;;;;;;;;;;;;;21.67;37.80;102587.81;4971626;28;4400;-60
2022/03/23 01:49:30;;;;;;;;;;;;;;;21.67;37.88;102587.81;4972466;28;4215;-59
2022/03/23 01:51:56;;;;;;;;;;;;;;;21.67;37.98;102581.28;4973941;28;4383;-59
2022/03/23 01:54:23;;;;;;;;;;;;;;;21.67;37.94;102579.16;4974186;28;5033;-59
2022/03/23 01:56:49;;;;;;;;;;;;;;;21.65;37.99;102578.28;4974355;28;4250;-59
2022/03/23 01:59:16;;;;;;;;;;;;;;;21.65;37.73;102579.03;4975230;28;4253;-59
2022/03/23 02:01:43;;;;;;;;;;;;;;;21.68;37.83;102583.53;4972627;28;4244;-59
2022/03/23 02:04:10;;;;;;;;;;;;;;;21.70;37.79;102580.81;4970472;28;5390;-59
2022/03/23 02:06:37;;;;;;;;;;;;;;;21.67;37.70;102578.38;4974102;28;4275;-59
2022/03/23 02:09:06;;;;;;;;;;;;;;;21.65;37.85;102581.16;4957163;28;4117;-59
2022/03/23 02:11:33;;;;;;;;;;;;;;;21.67;37.71;102587.81;4973774;28;4105;-59
2022/03/23 02:14:05;;;;;;;;;;;;;;;21.64;37.79;102588.28;4977875;28;4256;-59
2022/03/23 02:16:37;;;;;;;;;;;;;;;21.63;38.00;102581.75;4974700;28;4145;-59
2022/03/23 02:19:04;;;;;;;;;;;;;;;21.67;37.89;102582.03;4968678;28;4163;-59
2022/03/23 02:21:31;;;;;;;;;;;;;;;21.66;37.79;102579.78;4956192;28;4284;-59
2022/03/23 02:23:57;;;;;;;;;;;;;;;21.65;37.88;102587.66;4972686;28;4229;-59
2022/03/23 02:26:23;;;;;;;;;;;;;;;21.65;37.76;102578.28;4977224;28;4282;-59
2022/03/23 02:28:50;;;;;;;;;;;;;;;21.66;37.64;102582.66;4972115;28;4332;-60
2022/03/23 02:31:17;;;;;;;;;;;;;;;21.68;37.52;102577.78;4969581;28;4266;-59
2022/03/23 02:33:43;;;;;;;;;;;;;;;21.65;37.61;102579.03;4975252;28;4192;-60
2022/03/23 02:36:10;;;;;;;;;;;;;;;21.65;37.84;102584.78;4975941;28;4199;-59
2022/03/23 02:38:37;;;;;;;;;;;;;;;21.64;37.70;102576.75;4974025;28;5332;-59
2022/03/23 02:41:03;;;;;;;;;;;;;;;21.64;37.67;102574.63;4976659;28;5282;-59
2022/03/23 02:43:29;;;;;;;;;;;;;;;21.64;37.68;102577.50;4972950;28;4167;-59
2022/03/23 02:45:56;;;;;;;;;;;;;;;21.65;37.66;102573.25;4969935;28;4194;-59
2022/03/23 02:48:22;;;;;;;;;;;;;;;21.65;37.83;102581.91;4974546;28;4258;-60
2022/03/23 02:50:49;;;;;;;;;;;;;;;21.66;37.74;102577.63;4972543;28;4194;-59
2022/03/23 03:02:16;;;;;;;;;;;;;;;21.64;37.46;102571.72;4977671;28;4178;-60
2022/03/23 03:04:43;;;;;;;;;;;;;;;21.64;37.51;102574.63;4973672;28;4272;-59
2022/03/23 03:07:09;;;;;;;;;;;;;;;21.63;37.57;102570.22;4968401;28;4221;-59
2022/03/23 03:09:36;;;;;;;;;;;;;;;21.63;37.73;102570.22;4971308;28;4161;-59
2022/03/23 03:12:02;;;;;;;;;;;;;;;21.62;37.69;102568.69;4972372;28;4329;-59
2022/03/23 03:14:29;;;;;;;;;;;;;;;21.62;37.52;102574.47;4978081;28;4224;-59
2022/03/23 03:16:56;;;;;;;;;;;;;;;21.63;37.71;102573.13;4973475;28;4253;-59
2022/03/23 03:19:22;;;;;;;;;;;;;;;21.64;37.70;102570.97;4972207;28;4189;-59
2022/03/23 03:21:48;;;;;;;;;;;;;;;21.66;37.44;102568.97;4975337;28;4219;-59
2022/03/23 03:24:15;;;;;;;;;;;;;;;21.66;37.60;102579.78;4971207;28;4274;-59
2022/03/23 03:26:42;;;;;;;;;;;;;;;21.63;37.56;102576.00;4973705;28;4188;-59
2022/03/23 03:29:08;;;;;;;;;;;;;;;21.61;37.60;102575.84;4973900;28;4257;-59
2022/03/23 03:31:34;;;;;;;;;;;;;;;21.64;37.47;102576.75;4974836;28;4342;-59
2022/03/23 03:34:01;;;;;;;;;;;;;;;21.64;37.48;102577.50;4978859;28;4129;-60
2022/03/23 03:36:27;;;;;;;;;;;;;;;21.62;37.52;102573.72;4974490;28;5501;-59
2022/03/23 03:38:54;;;;;;;;;;;;;;;21.65;37.53;102572.50;4975435;28;4263;-59
2022/03/23 03:41:20;;;;;;;;;;;;;;;21.65;37.51;102573.25;4975267;28;5293;-59
2022/03/23 03:43:48;;;;;;;;;;;;;;;21.65;37.51;102567.50;4974782;28;4226;-59
2022/03/23 03:46:15;;;;;;;;;;;;;;;21.64;37.42;102568.84;4975471;28;4514;-60
2022/03/23 03:48:41;;;;;;;;;;;;;;;21.65;37.43;102561.72;4972696;28;4235;-59
2022/03/23 03:51:08;;;;;;;;;;;;;;;21.65;37.50;102561.72;4974017;28;5337;-59
2022/03/23 03:53:35;;;;;;;;;;;;;;;21.63;37.39;102570.22;4969754;28;4201;-59
2022/03/23 03:56:06;;;;;;;;;;;;;;;21.63;37.44;102570.22;4971996;28;5342;-59
2022/03/23 03:58:32;;;;;;;;;;;;;;;21.60;37.50;102571.47;4969765;28;4175;-59
2022/03/23 04:00:58;;;;;;;;;;;;;;;21.63;37.36;102569.47;4976997;28;4155;-59
2022/03/23 04:03:26;;;;;;;;;;;;;;;21.63;37.54;102576.00;4971473;28;4159;-59
2022/03/23 04:05:52;;;;;;;;;;;;;;;21.63;37.52;102581.75;4967584;28;4210;-59
2022/03/23 04:08:18;;;;;;;;;;;;;;;21.62;37.57;102585.25;4976337;28;5351;-59
2022/03/23 04:10:45;;;;;;;;;;;;;;;21.60;37.40;102583.00;4974527;28;5518;-59
2022/03/23 04:13:11;;;;;;;;;;;;;;;21.60;37.56;102583.00;4967781;28;4158;-59
2022/03/23 04:15:38;;;;;;;;;;;;;;;21.61;37.60;102587.38;4971583;28;4183;-59
2022/03/23 04:18:05;;;;;;;;;;;;;;;21.62;37.52;102591.03;4970384;28;4268;-59
2022/03/23 04:20:32;;;;;;;;;;;;;;;21.62;37.51;102591.75;4972395;28;5351;-60
2022/03/23 04:22:58;;;;;;;;;;;;;;;21.63;37.44;102587.53;4972976;28;4265;-60
2022/03/23 04:25:24;;;;;;;;;;;;;;;21.63;37.39;102587.53;4971938;28;4231;-59
2022/03/23 04:27:51;;;;;;;;;;;;;;;21.62;37.28;102591.75;4974797;28;4155;-59
2022/03/23 04:30:18;;;;;;;;;;;;;;;21.59;37.54;102593.00;4972869;28;4032;-59
2022/03/23 04:32:45;;;;;;;;;;;;;;;21.59;37.34;102598.78;4976013;28;4213;-59
2022/03/23 04:35:12;;;;;;;;;;;;;;;21.60;37.45;102594.53;4974663;28;4164;-59
2022/03/23 04:37:39;;;;;;;;;;;;;;;21.59;37.26;102593.00;4974313;28;4150;-60
2022/03/23 04:40:05;;;;;;;;;;;;;;;21.61;37.28;102595.28;4975513;28;4309;-59
2022/03/23 04:42:32;;;;;;;;;;;;;;;21.60;37.25;102600.31;4973088;28;4011;-59
2022/03/23 04:44:59;;;;;;;;;;;;;;;21.60;37.32;102597.41;4971102;28;4091;-59
2022/03/23 04:47:25;;;;;;;;;;;;;;;21.60;37.24;102600.31;4972769;28;4084;-59
2022/03/23 04:49:51;;;;;;;;;;;;;;;21.60;37.31;102593.75;4974184;28;4186;-59
2022/03/23 04:52:18;;;;;;;;;;;;;;;21.59;37.49;102601.66;4973600;28;5382;-59
2022/03/23 04:54:44;;;;;;;;;;;;;;;21.58;37.46;102600.16;4977214;28;4093;-59
2022/03/23 04:57:16;;;;;;;;;;;;;;;21.57;37.53;102601.50;4977017;28;4507;-59
2022/03/23 04:59:43;;;;;;;;;;;;;;;21.60;37.27;102600.31;4975871;28;4271;-59
2022/03/23 05:02:09;;;;;;;;;;;;;;;21.60;37.24;102594.53;4970731;28;4203;-60
2022/03/23 05:04:36;;;;;;;;;;;;;;;21.63;37.20;102601.19;4974809;28;4239;-60
2022/03/23 05:07:03;;;;;;;;;;;;;;;21.63;37.27;102596.19;4974572;28;5321;-59
2022/03/23 05:09:29;;;;;;;;;;;;;;;21.63;37.08;102593.28;4979390;28;4238;-60
2022/03/23 05:11:55;;;;;;;;;;;;;;;21.63;37.06;102596.19;4977009;28;4249;-60
2022/03/23 05:14:22;;;;;;;;;;;;;;;21.62;36.99;102591.03;4977983;28;5409;-59
2022/03/23 05:16:48;;;;;;;;;;;;;;;21.61;36.99;102593.16;4977803;28;5592;-60
2022/03/23 05:19:14;;;;;;;;;;;;;;;21.63;37.01;102598.31;4975558;28;4283;-60
2022/03/23 05:21:41;;;;;;;;;;;;;;;21.63;36.91;102593.28;4978199;28;4265;-60
2022/03/23 05:24:07;;;;;;;;;;;;;;;21.62;36.91;102588.88;4973698;28;4260;-60
2022/03/23 05:26:33;;;;;;;;;;;;;;;21.62;36.94;102603.31;4976325;28;4260;-60
2022/03/23 05:29:00;;;;;;;;;;;;;;;21.62;36.99;102596.78;4972164;28;5525;-60
2022/03/23 05:31:26;;;;;;;;;;;;;;;21.63;37.02;102593.28;4977139;28;4380;-60
2022/03/23 05:33:53;;;;;;;;;;;;;;;21.62;37.10;102603.31;4976742;28;4210;-59
2022/03/23 05:36:19;;;;;;;;;;;;;;;21.60;36.87;102591.66;4973063;28;4088;-59
2022/03/23 05:38:45;;;;;;;;;;;;;;;21.61;36.96;102590.28;4974380;28;4165;-59
2022/03/23 05:41:12;;;;;;;;;;;;;;;21.60;37.17;102591.66;4973603;28;4190;-60
2022/03/23 05:43:38;;;;;;;;;;;;;;;21.61;37.24;102596.03;4974549;28;4015;-59
2022/03/23 05:46:04;;;;;;;;;;;;;;;21.63;37.18;102592.53;4970952;28;4570;-60
2022/03/23 05:48:31;;;;;;;;;;;;;;;21.63;37.29;102587.53;4970314;28;4099;-60
2022/03/23 05:51:00;;;;;;;;;;;;;;;21.63;37.35;102590.41;4966997;28;4246;-59
2022/03/23 05:53:26;;;;;;;;;;;;;;;21.63;37.74;102587.53;4966856;28;4204;-60
2022/03/23 05:55:53;;;;;;;;;;;;;;;21.59;37.62;102593.00;4969558;28;4349;-49
2022/03/23 05:58:19;;;;;;;;;;;;;;;21.62;37.90;102585.25;4974611;28;4048;-61
2022/03/23 06:00:47;;;;;;;;;;;;;;;21.64;37.86;102589.03;4970612;28;4198;-54
2022/03/23 06:03:13;;;;;;;;;;;;;;;21.60;38.27;102596.66;4965498;28;5278;-53
2022/03/23 06:05:40;;;;;;;;;;;;;;;21.28;34.73;102596.63;4967764;28;5664;-55
2022/03/23 06:08:09;;;;;;;;;;;;;;;21.33;36.51;102598.44;4972542;28;4155;-55
2022/03/23 06:10:35;;;;;;;;;;;;;;;21.41;37.24;102594.63;4957852;28;4225;-56
2022/03/23 06:13:01;;;;;;;;;;;;;;;21.43;37.70;102594.78;4966686;28;5324;-53
2022/03/23 06:15:28;;;;;;;;;;;;;;;21.45;37.92;102606.44;4964506;28;4183;-53
2022/03/23 06:17:54;;;;;;;;;;;;;;;21.47;37.97;102600.81;4971562;28;4083;-55
2022/03/23 06:20:26;;;;;;;;;;;;;;;21.48;37.98;102597.31;4979182;28;4244;-51
2022/03/23 06:22:52;;;;;;;;;;;;;;;21.47;38.12;102601.56;4979220;28;4046;-56
2022/03/23 06:25:18;;;;;;;;;;;;;;;21.47;38.24;102607.34;4976637;28;5519;-62
2022/03/23 06:27:45;;;;;;;;;;;;;;;21.50;38.34;102608.22;4979721;28;4266;-53
2022/03/23 06:30:11;;;;;;;;;;;;;;;21.52;38.14;102605.50;4979117;28;4233;-56
2022/03/23 06:32:38;;;;;;;;;;;;;;;21.52;39.20;102614.16;4979099;28;4202;-52
2022/03/23 06:35:04;;;;;;;;;;;;;;;21.50;37.99;102614.00;4976274;28;5239;-56
2022/03/23 06:37:31;;;;;;;;;;;;;;;21.34;35.31;102620.09;4976629;28;4013;-55
2022/03/23 06:39:57;;;;;;;;;;;;;;;21.21;33.13;102617.75;4976140;28;5513;-53
2022/03/23 06:42:24;;;;;;;;;;;;;;;21.16;32.23;102607.28;4977828;28;4245;-56
2022/03/23 06:44:50;;;;;;;;;;;;;;;21.22;32.17;102604.09;4976003;28;4270;-58
2022/03/23 06:47:16;;;;;;;;;;;;;;;21.30;33.97;102607.53;4974198;28;4041;-54
2022/03/23 06:49:43;;;;;;;;;;;;;;;21.34;34.98;102613.59;4977439;28;4382;-55
2022/03/23 06:52:09;;;;;;;;;;;;;;;21.38;35.88;102613.13;4961947;28;4211;-55
2022/03/23 06:54:35;;;;;;;;;;;;;;;21.38;35.90;102613.13;4966540;28;4229;-55
2022/03/23 06:57:02;;;;;;;;;;;;;;;21.40;36.08;102614.06;4969748;28;4204;-53
2022/03/23 06:59:28;;;;;;;;;;;;;;;21.43;36.39;102615.69;4975053;28;5471;-55
2022/03/23 07:01:55;;;;;;;;;;;;;;;21.44;36.74;102604.91;4976360;28;4348;-54
2022/03/23 07:04:24;;;;;;;;;;;;;;;21.45;36.88;102612.22;4976482;28;4149;-55
2022/03/23 07:06:51;;;;;;;;;;;;;;;21.46;36.81;102608.72;4977944;28;4258;-54
2022/03/23 07:09:32;;;;;;;;;;;;;;;21.50;37.41;102614.00;4975268;28;4164;-56
2022/03/23 07:11:59;;;;;;;;;;;;;;;21.49;37.93;102606.72;4976557;28;4013;-56
2022/03/23 07:14:26;;;;;;;;;;;;;;;21.49;38.01;102606.72;4977625;28;5314;-56
2022/03/23 07:16:53;;;;;;;;;;;;;;;21.48;38.34;102605.97;4978556;28;4208;-56
2022/03/23 07:19:19;;;;;;;;;;;;;;;21.51;38.32;102604.75;4976696;28;4049;-55
2022/03/23 07:21:45;;;;;;;;;;;;;;;21.53;38.64;102612.75;4976219;28;4150;-56
2022/03/23 07:24:12;;;;;;;;;;;;;;;21.51;38.02;102598.22;4975826;28;5103;-51
2022/03/23 07:26:39;;;;;;;;;;;;;;;21.50;38.49;102605.34;4976818;28;4363;-54
2022/03/23 07:29:05;;;;;;;;;;;;;;;21.50;38.53;102605.34;4977972;28;4166;-55
2022/03/23 07:31:31;;;;;;;;;;;;;;;21.52;38.32;102606.25;4974283;28;4231;-55
2022/03/23 07:33:58;;;;;;;;;;;;;;;21.54;38.16;102609.28;4975230;28;4095;-56
2022/03/23 07:36:24;;;;;;;;;;;;;;;21.55;38.22;102612.91;4977142;28;4209;-54
2022/03/23 07:38:54;;;;;;;;;;;;;;;21.56;38.48;102614.44;4975772;28;4172;-56
2022/03/23 07:41:23;;;;;;;;;;;;;;;21.55;38.87;102615.78;4977380;28;4343;-56
2022/03/23 07:43:49;;;;;;;;;;;;;;;21.55;38.77;102618.66;4976404;28;4151;-56
2022/03/23 07:46:16;;;;;;;;;;;;;;;21.53;38.49;102612.75;4978014;28;4225;-53
2022/03/23 07:48:42;;;;;;;;;;;;;;;21.54;38.42;102617.16;4978504;28;4059;-56
2022/03/23 07:51:08;;;;;;;;;;;;;;;21.55;38.72;102615.78;4976107;28;4211;-55
2022/03/23 07:53:35;;;;;;;;;;;;;;;21.56;38.64;102614.44;4978222;28;4186;-54
2022/03/23 07:56:07;;;;;;;;;;;;;;;21.56;38.55;102611.56;4978494;28;4143;-55
2022/03/23 07:58:33;;;;;;;;;;;;;;;21.53;38.44;102615.66;4978233;28;4076;-59
2022/03/23 08:01:00;;;;;;;;;;;;;;;21.24;35.55;102610.00;4977854;28;5202;-57
2022/03/23 08:03:26;;;;;;;;;;;;;;;21.33;37.10;102612.09;4975632;28;4255;-57
2022/03/23 08:05:53;;;;;;;;;;;;;;;21.42;38.01;102613.44;4975661;28;4231;-57
2022/03/23 08:08:19;;;;;;;;;;;;;;;21.46;37.89;102611.59;4979946;28;4246;-57
2022/03/23 08:10:46;;;;;;;;;;;;;;;21.49;37.72;102615.38;4977355;28;4161;-58
2022/03/23 08:13:12;;;;;;;;;;;;;;;21.52;37.88;102617.03;4978786;28;4162;-58
2022/03/23 08:15:39;;;;;;;;;;;;;;;21.54;37.73;102620.06;4975670;28;4032;-57
2022/03/23 08:18:05;;;;;;;;;;;;;;;21.54;37.80;102614.28;4977776;28;4145;-58
2022/03/23 08:20:35;;;;;;;;;;;;;;;21.54;37.84;102614.28;4978503;28;4364;-58
2022/03/23 08:23:03;;;;;;;;;;;;;;;21.51;37.84;102615.53;4982361;28;4226;-57
2022/03/23 08:25:29;;;;;;;;;;;;;;;21.51;38.09;102618.41;4979574;28;4256;-58
2022/03/23 08:28:01;;;;;;;;;;;;;;;21.54;37.90;102614.28;4980798;28;4160;-57
2022/03/23 08:30:27;;;;;;;;;;;;;;;21.56;38.08;102614.44;4981952;28;5253;-58
2022/03/23 08:32:53;;;;;;;;;;;;;;;21.56;37.97;102620.19;4980928;28;5133;-58
2022/03/23 08:35:20;;;;;;;;;;;;;;;21.56;37.93;102613.69;4981582;28;4216;-58
2022/03/23 08:37:48;;;;;;;;;;;;;;;21.55;38.07;102621.56;4980920;28;4200;-57
2022/03/23 08:40:14;;;;;;;;;;;;;;;21.55;38.26;102624.44;4980741;28;5462;-62
2022/03/23 08:42:40;;;;;;;;;;;;;;;21.41;36.74;102626.34;4980274;28;4248;-58
2022/03/23 08:45:07;;;;;;;;;;;;;;;21.44;38.14;102616.44;4977959;28;4207;-57
2022/03/23 08:47:34;;;;;;;;;;;;;;;21.49;37.96;102626.91;4979373;28;5402;-59
2022/03/23 08:50:00;;;;;;;;;;;;;;;21.54;37.76;102625.81;4979794;28;6226;-58
2022/03/23 08:52:29;;;;;;;;;;;;;;;21.55;37.75;102624.44;4981202;28;4358;-54
2022/03/23 08:54:57;;;;;;;;;;;;;;;21.56;37.79;102628.84;4979980;28;4190;-58
2022/03/23 08:57:23;;;;;;;;;;;;;;;21.56;38.07;102628.84;4980117;28;4196;-54
2022/03/23 08:59:50;;;;;;;;;;;;;;;21.61;37.97;102627.75;4981938;28;4350;-57
2022/03/23 09:02:17;;;;;;;;;;;;;;;21.66;38.02;102623.78;4978055;28;4235;-56
2022/03/23 09:04:43;;;;;;;;;;;;;;;21.64;38.01;102623.63;4980098;28;4477;-57
2022/03/23 09:07:10;;;;;;;;;;;;;;;21.62;38.22;102623.47;4980160;28;5046;-57
2022/03/23 09:09:36;;;;;;;;;;;;;;;21.62;38.17;102620.59;4980715;28;4176;-56
2022/03/23 09:12:03;;;;;;;;;;;;;;;21.61;38.05;102619.09;4979438;28;4148;-54
2022/03/23 09:14:29;;;;;;;;;;;;;;;21.61;38.00;102619.09;4981327;28;4056;-57
2022/03/23 09:16:55;;;;;;;;;;;;;;;21.62;38.15;102626.38;4982589;28;4160;-56
2022/03/23 09:19:22;;;;;;;;;;;;;;;21.62;38.07;102614.09;4979970;28;5260;-55
2022/03/23 09:21:48;;;;;;;;;;;;;;;21.63;38.12;102619.25;4980072;28;4626;-57
2022/03/23 09:24:15;;;;;;;;;;;;;;;21.63;38.28;102619.25;4979840;28;4040;-57
2022/03/23 09:26:41;;;;;;;;;;;;;;;21.64;38.25;102617.84;4978216;28;4251;-56
2022/03/23 09:29:08;;;;;;;;;;;;;;;21.67;38.50;102616.66;4974843;28;4160;-57
2022/03/23 09:31:34;;;;;;;;;;;;;;;21.66;38.51;102614.38;4975874;28;4165;-56
2022/03/23 09:34:02;;;;;;;;;;;;;;;21.65;38.62;102612.88;4976208;28;4195;-54
2022/03/23 09:39:14;;;;;;;;;;;;;;;21.63;38.75;102616.38;4979571;28;4068;-50
2022/03/23 09:41:43;;;;;;;;;;;;;;;21.64;38.83;102617.84;4975043;28;4614;-55
2022/03/23 09:44:10;;;;;;;;;;;;;;;21.64;38.70;102620.75;4977703;28;6452;-54
2022/03/23 09:46:36;;;;;;;;;;;;;;;21.60;38.81;102616.81;4979519;28;4233;-54
2022/03/23 09:49:03;;;;;;;;;;;;;;;21.60;38.74;102613.94;4973612;28;5252;-55
2022/03/23 09:51:30;;;;;;;;;;;;;;;21.63;38.93;102616.38;4978247;28;4137;-54
2022/03/23 09:53:57;;;;;;;;;;;;;;;21.64;38.88;102614.97;4979694;28;4626;-52
2022/03/23 09:56:24;;;;;;;;;;;;;;;21.63;38.85;102609.84;4980237;28;4215;-54
2022/03/23 09:58:50;;;;;;;;;;;;;;;21.64;38.91;102606.31;4979397;28;4344;-54
2022/03/23 10:01:29;;;;;;;;;;;;;;;21.64;38.65;102609.22;4979824;28;4171;-51
2022/03/23 10:04:06;;;;;;;;;;;;;;;21.66;38.88;102606.47;4979668;28;4170;-56
2022/03/23 10:06:39;;;;;;;;;;;;;;;21.67;38.81;102608.00;4979812;28;4447;-55
2022/03/23 10:09:15;;;;;;;;;;;;;;;21.67;38.70;102602.22;4979482;28;4196;-55
2022/03/23 10:12:00;;;;;;;;;;;;;;;21.64;38.96;102606.31;4980157;28;5626;-56
2022/03/23 10:14:46;;;;;;;;;;;;;;;21.67;38.82;102598.56;4979611;28;5202;-56
2022/03/23 10:17:31;;;;;;;;;;;;;;;21.66;39.05;102603.59;4978716;28;5240;-51
2022/03/23 10:19:57;;;;;;;;;;;;;;;21.68;39.17;102606.59;4978560;28;4055;-56
2022/03/23 10:22:25;;;;;;;;;;;;;;;21.64;39.34;102600.56;4977373;28;4115;-54
2022/03/23 10:24:51;;;;;;;;;;;;;;;21.69;38.99;102604.47;4978016;28;4074;-55
2022/03/23 10:27:20;;;;;;;;;;;;;;;21.67;39.20;102605.13;4978507;28;4190;-55
2022/03/23 10:29:47;;;;;;;;;;;;;;;21.66;39.16;102597.06;4973075;28;4306;-62
2022/03/23 10:32:14;;;;;;;;;;;;;;;21.64;39.17;102597.69;4974382;28;4268;-55
2022/03/23 10:34:53;;;;;;;;;;;;;;;21.64;39.37;102594.78;4979864;28;4337;-56
2022/03/23 10:37:24;;;;;;;;;;;;;;;21.64;39.31;102599.81;4978330;28;4226;-54
2022/03/23 10:39:50;;;;;;;;;;;;;;;21.68;38.97;102595.06;4978127;28;4208;-56
2022/03/23 10:42:17;;;;;;;;;;;;;;;21.69;39.13;102595.81;4977470;28;4224;-56
2022/03/23 10:44:44;;;;;;;;;;;;;;;21.67;39.06;102589.91;4978453;28;5460;-56
2022/03/23 10:47:40;;;;;;;;;;;;;;;21.64;39.08;102589.03;4977393;28;4198;-56
2022/03/23 10:50:16;;;;;;;;;;;;;;;21.68;39.33;102580.66;4970651;28;4315;-56
2022/03/23 10:52:53;;;;;;;;;;;;;;;21.67;39.14;102584.94;4979720;28;5552;-55
2022/03/23 10:55:19;;;;;;;;;;;;;;;21.67;39.09;102579.16;4976407;28;4118;-56
2022/03/23 10:57:53;;;;;;;;;;;;;;;21.69;39.30;102585.06;4973459;28;5440;-63
2022/03/23 11:00:35;;;;;;;;;;;;;;;21.53;36.04;102576.06;4971427;28;5387;-57
2022/03/23 11:03:02;;;;;;;;;;;;;;;21.52;37.68;102576.66;4977215;28;4150;-58
2022/03/23 11:05:31;;;;;;;;;;;;;;;21.54;38.61;102573.94;4977019;28;4206;-58
2022/03/23 11:08:09;;;;;;;;;;;;;;;21.60;38.22;102571.47;4976729;28;5250;-58
2022/03/23 11:16:07;;;;;;;;;;;;;;;21.62;38.05;102557.19;4976249;28;4173;-57
2022/03/23 11:18:34;;;;;;;;;;;;;;;21.61;38.10;102555.69;4976414;28;4174;-58
2022/03/23 11:21:00;;;;;;;;;;;;;;;21.63;38.10;102552.94;4977317;28;4161;-57
2022/03/23 11:23:27;;;;;;;;;;;;;;;21.66;38.26;102545.91;4976943;28;4249;-58
2022/03/23 11:25:54;;;;;;;;;;;;;;;21.64;38.47;102550.81;4972893;28;4244;-57
2022/03/23 11:28:26;;;;;;;;;;;;;;;21.64;38.39;102550.81;4976326;28;5518;-57
2022/03/23 11:30:53;;;;;;;;;;;;;;;21.65;38.33;102553.06;4972896;28;4540;-58
2022/03/23 11:33:22;;;;;;;;;;;;;;;21.66;38.54;102545.91;4977960;28;4302;-57
2022/03/23 11:35:49;;;;;;;;;;;;;;;21.64;38.66;102548.66;4960930;28;3994;-57
2022/03/23 11:38:16;;;;;;;;;;;;;;;21.64;38.66;102551.53;4975320;28;4266;-57
2022/03/23 11:40:44;;;;;;;;;;;;;;;21.65;38.78;102544.41;4976072;28;4285;-55
2022/03/23 11:43:14;;;;;;;;;;;;;;;21.65;38.73;102541.53;4976544;28;5091;-57
2022/03/23 11:46:02;;;;;;;;;;;;;;;21.67;38.82;102541.69;4976599;28;4167;-57
2022/03/23 11:48:39;;;;;;;;;;;;;;;21.65;38.85;102535.78;4977139;28;4271;-57
2022/03/23 11:51:14;;;;;;;;;;;;;;;21.65;38.95;102532.91;4965066;28;4458;-57
2022/03/23 11:53:53;;;;;;;;;;;;;;;21.67;38.88;102524.38;4975696;28;4029;-57
2022/03/23 11:56:33;;;;;;;;;;;;;;;21.66;38.90;102528.63;4974852;28;4054;-57
2022/03/23 11:59:18;;;;;;;;;;;;;;;21.64;39.09;102537.13;4973564;28;4839;-58
2022/03/23 12:01:45;;;;;;;;;;;;;;;21.64;38.89;102528.47;4974735;28;4018;-58
2022/03/23 12:04:12;;;;;;;;;;;;;;;21.66;39.08;102516.34;4956905;28;4258;-58
2022/03/23 12:06:39;;;;;;;;;;;;;;;21.65;37.70;102527.13;4974585;28;4262;-59
2022/03/23 12:09:06;;;;;;;;;;;;;;;21.65;38.47;102515.59;4976055;28;4065;-58
2022/03/23 12:11:32;;;;;;;;;;;;;;;21.67;38.20;102512.06;4975728;28;4367;-57
2022/03/23 12:13:59;;;;;;;;;;;;;;;21.65;37.94;102518.47;4975160;28;5220;-58
2022/03/23 12:16:44;;;;;;;;;;;;;;;21.67;37.83;102504.19;4977519;28;4093;-57
2022/03/23 12:19:34;;;;;;;;;;;;;;;21.66;37.64;102505.56;4976618;28;5193;-58
2022/03/23 12:22:05;;;;;;;;;;;;;;;21.66;37.73;102505.56;4974583;28;5757;-58
2022/03/23 12:24:49;;;;;;;;;;;;;;;21.66;37.77;102501.94;4976766;28;5256;-57
2022/03/23 12:27:22;;;;;;;;;;;;;;;21.67;37.59;102495.56;4976118;28;4165;-57
2022/03/23 12:29:49;;;;;;;;;;;;;;;21.67;37.58;102497.66;4975551;28;4175;-56
2022/03/23 12:32:16;;;;;;;;;;;;;;;21.63;37.78;102506.06;4973438;28;5294;-57
2022/03/23 12:34:42;;;;;;;;;;;;;;;21.63;35.60;102501.03;4974895;28;4278;-57
2022/03/23 12:37:13;;;;;;;;;;;;;;;21.63;34.51;102495.28;4974789;28;5413;-55
2022/03/23 12:39:44;;;;;;;;;;;;;;;21.63;34.97;102492.38;4977207;28;4024;-57
2022/03/23 12:42:15;;;;;;;;;;;;;;;21.65;36.34;102495.41;4977410;28;5479;-56
2022/03/23 12:44:42;;;;;;;;;;;;;;;21.66;36.55;102487.50;4976069;28;5640;-57
2022/03/23 12:47:10;;;;;;;;;;;;;;;21.67;36.69;102489.00;4976168;28;4216;-55
2022/03/23 12:58:03;;;;;;;;;;;;;;;21.69;37.18;102475.50;4979491;28;4221;-57
2022/03/23 13:00:29;;;;;;;;;;;;;;;21.71;37.16;102478.50;4978062;28;5306;-57
2022/03/23 13:03:13;;;;;;;;;;;;;;;21.72;37.25;102474.25;4978215;28;5154;-58
2022/03/23 13:05:54;;;;;;;;;;;;;;;21.72;37.14;102468.50;4976487;28;4070;-57
2022/03/23 13:08:27;;;;;;;;;;;;;;;21.71;37.27;102455.44;4977959;28;4351;-58
2022/03/23 13:10:58;;;;;;;;;;;;;;;21.74;37.48;102465.75;4979413;28;5268;-58
2022/03/23 13:13:25;;;;;;;;;;;;;;;21.77;37.32;102474.53;4980737;28;4351;-57
2022/03/23 13:15:52;;;;;;;;;;;;;;;21.75;37.60;102467.25;4979865;28;4218;-59
2022/03/23 13:18:23;;;;;;;;;;;;;;;21.75;37.48;102467.25;4980093;28;4210;-57